Time;durP1;ratioP1;P1;durP2;ratioP2;P2;SDS_P1;SDS_P2;PMS_P1;PMS_P2;Temp;Humidity;BMP_temperature;BMP_pressure;BME280_temperature;BME280_humidity;BME280_pressure;Samples;Min_cycle;Max_cycle;Signal;HPM_P1;HPM_P2
2022/08/16 00:00:49;;;;;;;9.05;8.00;;;;;;;21.01;65.60;100453.41;5086585;28;20053;-59
2022/08/16 00:03:16;;;;;;;10.85;7.43;;;;;;;21.03;65.63;100448.66;5106960;28;20055;-58
2022/08/16 00:05:42;;;;;;;8.27;6.80;;;;;;;20.84;66.17;100455.28;5111357;28;20454;-58
2022/08/16 00:08:08;;;;;;;9.23;8.13;;;;;;;20.81;66.59;100452.94;5078010;28;20107;-59
2022/08/16 00:10:34;;;;;;;9.43;7.35;;;;;;;20.85;66.46;100458.84;5097208;28;20166;-58
2022/08/16 00:13:01;;;;;;;7.93;7.10;;;;;;;20.62;66.98;100446.06;5090873;28;20027;-58
2022/08/16 00:15:37;;;;;;;8.90;7.22;;;;;;;20.76;66.57;100449.91;5099756;28;20031;-58
2022/08/16 00:18:03;;;;;;;9.63;7.75;;;;;;;20.78;66.69;100456.00;5091898;28;20024;-58
2022/08/16 00:20:29;;;;;;;10.82;8.05;;;;;;;20.67;67.16;100447.41;5093173;28;20047;-58
2022/08/16 00:22:55;;;;;;;9.10;7.80;;;;;;;20.69;67.07;100453.50;5091363;28;20451;-59
2022/08/16 00:25:22;;;;;;;9.48;8.27;;;;;;;20.69;67.06;100469.72;5092561;28;20513;-58
2022/08/16 00:27:48;;;;;;;9.13;7.93;;;;;;;20.58;67.09;100462.78;5090158;28;20020;-58
2022/08/16 00:30:16;;;;;;;8.30;7.50;;;;;;;20.64;67.39;100473.75;5092986;28;20024;-58
2022/08/16 00:32:45;;;;;;;8.88;7.68;;;;;;;20.51;67.45;100464.47;5111183;28;20027;-58
2022/08/16 00:35:15;;;;;;;10.15;8.38;;;;;;;20.56;67.35;100470.22;5092123;28;20024;-58
2022/08/16 00:37:41;;;;;;;10.70;7.93;;;;;;;20.60;67.14;100471.59;5106035;27;20043;-58
2022/08/16 00:40:09;;;;;;;11.57;8.13;;;;;;;20.50;67.59;100476.28;5097162;28;20028;-58
2022/08/16 00:42:35;;;;;;;11.50;8.52;;;;;;;20.52;67.20;100477.81;5092470;28;20034;-58
2022/08/16 00:45:35;;;;;;;12.00;8.55;;;;;;;20.59;66.83;100470.75;5111551;28;20028;-58
2022/08/16 00:48:07;;;;;;;14.48;8.07;;;;;;;20.50;67.53;100466.34;5105098;27;20027;-58
2022/08/16 00:50:35;;;;;;;18.08;9.35;;;;;;;20.40;68.07;100485.41;5103766;28;20050;-59
2022/08/16 00:53:03;;;;;;;15.97;9.23;;;;;;;20.41;67.91;100472.72;5100073;28;20111;-58
2022/08/16 00:55:32;;;;;;;20.67;9.60;;;;;;;20.25;68.67;100484.41;5101607;28;20028;-58
2022/08/16 00:57:58;;;;;;;14.38;9.05;;;;;;;20.17;69.23;100487.09;5109495;28;20107;-59
2022/08/16 01:00:27;;;;;;;15.57;9.68;;;;;;;20.14;69.67;100485.56;5106414;28;20457;-58
2022/08/16 01:02:53;;;;;;;;;;;;;;;20.50;66.70;100482.53;5109999;28;20363;-58
2022/08/16 01:05:18;;;;;;;18.40;10.18;;;;;;;20.16;69.26;100475.44;5110065;28;19922;-58
2022/08/16 01:07:45;;;;;;;19.67;11.32;;;;;;;20.25;69.39;100479.00;5111078;28;20114;-58
2022/08/16 01:10:11;;;;;;;16.92;10.27;;;;;;;20.12;69.86;100487.59;5094827;28;20019;-58
2022/08/16 01:12:39;;;;;;;17.73;11.65;;;;;;;20.16;69.89;100488.13;5076934;28;20543;-58
2022/08/16 01:15:05;;;;;;;;;;;;;;;20.39;67.41;100485.59;5100676;28;20067;-59
2022/08/16 01:17:36;;;;;;;15.90;10.35;;;;;;;20.09;69.90;100484.38;5110474;28;20367;-58
2022/08/16 01:20:06;;;;;;;15.50;11.40;;;;;;;20.03;70.44;100479.66;5102347;28;20495;-59
2022/08/16 01:22:51;;;;;;;16.45;11.75;;;;;;;20.03;70.31;100476.94;5102821;28;20016;-58
2022/08/16 01:25:28;;;;;;;13.13;11.18;;;;;;;19.99;70.74;100479.16;5087595;28;20038;-59
2022/08/16 01:27:55;;;;;;;16.10;11.95;;;;;;;19.97;71.21;100475.75;5096535;28;20034;-58
2022/08/16 01:30:26;;;;;;;18.13;11.95;;;;;;;19.94;71.46;100478.78;5091704;28;20034;-58
2022/08/16 01:32:53;;;;;;;17.55;11.65;;;;;;;19.85;71.77;100477.09;5096294;28;20028;-58
2022/08/16 01:35:24;;;;;;;19.05;12.73;;;;;;;19.85;71.90;100477.09;5090249;28;20024;-59
2022/08/16 01:37:53;;;;;;;18.60;12.82;;;;;;;19.82;71.87;100480.97;5104070;28;20469;-58
2022/08/16 01:40:21;;;;;;;23.05;12.52;;;;;;;19.85;71.65;100472.53;5111726;28;20031;-58
2022/08/16 01:42:48;;;;;;;19.70;13.50;;;;;;;19.77;71.95;100469.84;5101508;28;20547;-58
2022/08/16 01:45:17;;;;;;;19.63;13.38;;;;;;;19.80;71.98;100480.31;5094690;28;20073;-59
2022/08/16 01:47:44;;;;;;;19.42;12.13;;;;;;;19.81;71.83;100483.84;5109954;28;20040;-58
2022/08/16 01:50:11;;;;;;;22.90;12.75;;;;;;;19.75;72.33;100482.66;5100339;28;20044;-59
2022/08/16 01:52:37;;;;;;;17.67;13.00;;;;;;;19.69;72.58;100478.75;5097582;28;20077;-58
2022/08/16 01:55:04;;;;;;;23.92;13.50;;;;;;;19.76;72.29;100481.63;5096772;28;20032;-58
2022/08/16 01:57:32;;;;;;;24.33;13.18;;;;;;;19.70;72.48;100485.00;5091403;28;20016;-58
2022/08/16 02:00:01;;;;;;;22.05;12.98;;;;;;;19.69;72.36;100477.91;5102604;28;20032;-58
2022/08/16 02:02:27;;;;;;;18.65;12.95;;;;;;;19.62;72.59;100482.25;5091245;28;20103;-59
2022/08/16 02:04:53;;;;;;;23.10;13.18;;;;;;;19.57;72.79;100487.31;5095431;28;20066;-58
2022/08/16 02:07:19;;;;;;;18.65;13.57;;;;;;;19.49;72.91;100488.09;5108250;28;20453;-58
2022/08/16 02:09:47;;;;;;;20.55;12.65;;;;;;;19.57;72.88;100488.16;5109760;28;20504;-58
2022/08/16 02:12:15;;;;;;;16.73;13.18;;;;;;;19.58;72.94;100491.69;5088997;28;20035;-58
2022/08/16 02:14:41;;;;;;;17.25;13.40;;;;;;;19.49;73.24;100496.19;5108054;28;20032;-58
2022/08/16 02:17:10;;;;;;;15.38;13.70;;;;;;;19.36;73.69;100485.88;5071172;28;20036;-58
2022/08/16 02:19:38;;;;;;;16.90;13.85;;;;;;;19.36;73.69;100485.03;5102402;28;20042;-58
2022/08/16 02:22:05;;;;;;;17.30;14.68;;;;;;;19.28;73.83;100480.44;5082252;28;20485;-58
2022/08/16 02:24:32;;;;;;;16.60;14.18;;;;;;;19.25;74.15;100476.22;5099515;28;20040;-58
2022/08/16 02:26:57;;;;;;;17.05;14.45;;;;;;;19.21;74.42;100488.34;5109292;28;20076;-59
2022/08/16 02:29:26;;;;;;;17.60;15.13;;;;;;;19.19;74.24;100474.19;5092762;28;20044;-58
2022/08/16 02:31:54;;;;;;;16.83;14.95;;;;;;;19.12;74.89;100475.84;5089456;28;20074;-59
2022/08/16 02:34:20;;;;;;;16.85;14.90;;;;;;;19.16;74.60;100485.28;5099703;28;20039;-58
2022/08/16 02:36:46;;;;;;;18.67;15.27;;;;;;;19.19;74.55;100482.28;5091821;28;20483;-59
2022/08/16 02:39:13;;;;;;;17.25;14.73;;;;;;;19.13;74.83;100482.06;5087534;28;20035;-58
2022/08/16 02:41:41;;;;;;;18.25;15.27;;;;;;;19.13;74.70;100479.38;5085898;28;20031;-58
2022/08/16 02:44:10;;;;;;;17.50;15.60;;;;;;;19.08;75.00;100474.47;5082382;28;20032;-58
2022/08/16 02:46:37;;;;;;;17.73;15.20;;;;;;;19.05;75.25;100474.78;5096045;28;20036;-58
2022/08/16 02:49:04;;;;;;;17.33;15.52;;;;;;;19.00;75.53;100477.09;5091195;28;20074;-59
2022/08/16 02:51:30;;;;;;;17.92;16.10;;;;;;;19.05;75.32;100472.09;5094586;28;20024;-58
2022/08/16 02:53:56;;;;;;;17.75;15.93;;;;;;;19.16;74.83;100470.97;5059896;28;20039;-58
2022/08/16 02:56:21;;;;;;;18.02;15.52;;;;;;;19.16;75.14;100470.97;5094407;28;20505;-58
2022/08/16 02:58:51;;;;;;;17.92;16.10;;;;;;;19.02;75.43;100465.16;5100567;28;20035;-59
2022/08/16 03:01:24;;;;;;;18.48;15.25;;;;;;;18.99;75.32;100467.34;5104869;28;20020;-58
2022/08/16 03:03:50;;;;;;;17.58;15.38;;;;;;;19.03;75.86;100463.31;5094103;28;20028;-58
2022/08/16 03:06:19;;;;;;;19.00;15.60;;;;;;;19.09;75.33;100469.91;5094718;28;20035;-58
2022/08/16 03:08:45;;;;;;;;;;;;;;;19.26;73.68;100472.50;5100006;28;20026;-58
2022/08/16 03:11:11;;;;;;;18.27;14.80;;;;;;;19.08;75.23;100469.06;5115089;28;19911;-58
2022/08/16 03:13:37;;;;;;;15.70;13.77;;;;;;;19.00;75.26;100448.31;5114210;28;20038;-58
2022/08/16 03:16:06;;;;;;;17.42;15.73;;;;;;;18.94;75.89;100461.56;5114695;28;20023;-58
2022/08/16 03:18:31;;;;;;;18.37;16.47;;;;;;;18.95;75.84;100460.59;5101992;28;20494;-58
2022/08/16 03:20:58;;;;;;;18.25;15.05;;;;;;;18.99;75.60;100461.94;5105817;28;20287;-58
2022/08/16 03:23:24;;;;;;;17.52;15.43;;;;;;;18.89;76.09;100463.94;5114559;28;20095;-59
2022/08/16 03:25:49;;;;;;;17.90;15.65;;;;;;;18.89;76.07;100451.28;5113132;28;20118;-59
2022/08/16 03:28:15;;;;;;;18.52;16.02;;;;;;;18.90;75.87;100454.84;5097730;28;20055;-58
2022/08/16 03:30:41;;;;;;;18.55;15.57;;;;;;;18.88;76.24;100459.53;5091070;28;20036;-58
2022/08/16 03:33:09;;;;;;;17.10;15.40;;;;;;;18.87;76.42;100465.94;5111545;28;20549;-58
2022/08/16 03:35:37;;;;;;;18.38;16.48;;;;;;;18.79;76.58;100472.94;5113364;28;20465;-58
2022/08/16 03:38:06;;;;;;;18.13;16.20;;;;;;;18.76;76.66;100475.13;5110981;28;20039;-58
2022/08/16 03:40:34;;;;;;;17.83;15.85;;;;;;;18.77;76.63;100471.44;5114425;28;20098;-58
2022/08/16 03:43:02;;;;;;;19.42;16.98;;;;;;;18.74;77.00;100475.28;5113829;28;20008;-58
2022/08/16 03:45:28;;;;;;;21.00;16.35;;;;;;;18.81;76.33;100484.41;5112908;28;20085;-58
2022/08/16 03:47:53;;;;;;;18.05;16.20;;;;;;;18.78;77.19;100478.50;5110437;28;20032;-58
2022/08/16 03:50:19;;;;;;;19.48;16.08;;;;;;;18.78;76.87;100482.03;5077529;28;20044;-58
2022/08/16 03:52:45;;;;;;;18.65;16.35;;;;;;;18.69;77.46;100484.81;5093884;28;20122;-58
2022/08/16 03:55:11;;;;;;;18.85;16.90;;;;;;;18.69;77.58;100490.22;5093086;28;20024;-58
2022/08/16 03:57:36;;;;;;;19.83;17.75;;;;;;;18.58;78.12;100484.06;5091714;28;20378;-58
2022/08/16 04:00:18;;;;;;;24.00;17.77;;;;;;;18.59;78.17;100490.31;5092026;28;20069;-58
2022/08/16 04:02:44;;;;;;;20.30;17.92;;;;;;;18.61;78.13;100485.59;5092739;28;20031;-58
2022/08/16 04:05:13;;;;;;;20.23;18.15;;;;;;;18.61;78.28;100491.84;5095717;28;20031;-58
2022/08/16 04:07:39;;;;;;;19.58;17.33;;;;;;;18.48;78.59;100488.72;5100046;28;20486;-58
2022/08/16 04:10:07;;;;;;;19.67;17.85;;;;;;;18.53;78.59;100496.31;5092085;28;20035;-58
2022/08/16 04:12:33;;;;;;;24.25;18.50;;;;;;;18.59;78.62;100499.25;5093161;28;20386;-58
2022/08/16 04:15:01;;;;;;;23.45;19.33;;;;;;;18.58;78.48;100497.53;5093033;28;20024;-58
2022/08/16 04:17:26;;;;;;;21.45;19.17;;;;;;;18.75;78.17;100500.38;5112289;28;20039;-58
2022/08/16 04:19:52;;;;;;;22.20;19.17;;;;;;;18.57;78.76;100500.41;5113256;28;20019;-58
2022/08/16 04:22:18;;;;;;;22.67;20.27;;;;;;;18.52;78.88;100502.72;5107903;28;20027;-58
2022/08/16 04:24:44;;;;;;;22.08;19.83;;;;;;;18.53;79.03;100502.56;5101667;28;20493;-58
2022/08/16 04:27:10;;;;;;;23.10;20.65;;;;;;;18.51;79.26;100498.34;5106694;28;20031;-58
2022/08/16 04:29:35;;;;;;;25.15;20.77;;;;;;;18.49;79.50;100513.81;5094242;28;20162;-58
2022/08/16 04:32:02;;;;;;;23.23;19.42;;;;;;;18.47;79.84;100510.41;5092652;28;20028;-58
2022/08/16 04:34:30;;;;;;;21.02;18.80;;;;;;;18.52;79.67;100506.25;5108645;28;20023;-58
2022/08/16 04:36:57;;;;;;;24.67;20.20;;;;;;;18.57;79.30;100497.72;5109037;28;20042;-58
2022/08/16 04:39:24;;;;;;;23.42;19.38;;;;;;;18.56;79.40;100506.78;5093564;28;20278;-58
2022/08/16 04:41:50;;;;;;;22.48;19.92;;;;;;;18.60;79.31;100509.00;5111791;28;20011;-58
2022/08/16 04:44:16;;;;;;;22.45;19.95;;;;;;;18.55;79.49;100510.47;5098088;28;20043;-58
2022/08/16 04:46:42;;;;;;;22.17;20.08;;;;;;;18.53;79.67;100504.41;5092868;28;20042;-58
2022/08/16 04:49:08;;;;;;;30.55;22.67;;;;;;;18.55;79.59;100510.47;5102464;28;20060;-58
2022/08/16 04:51:34;;;;;;;23.00;20.67;;;;;;;18.57;79.57;100511.19;5107409;28;20024;-58
2022/08/16 04:54:02;;;;;;;24.80;21.70;;;;;;;18.58;79.54;100510.16;5092309;28;20400;-58
2022/08/16 04:56:28;;;;;;;25.38;22.70;;;;;;;18.52;79.77;100505.41;5112667;28;20028;-58
2022/08/16 04:58:54;;;;;;;23.60;21.00;;;;;;;18.52;79.55;100500.03;5108381;28;20031;-58
2022/08/16 05:01:21;;;;;;;26.88;21.98;;;;;;;18.50;79.96;100519.03;5111407;28;20035;-58
2022/08/16 05:03:49;;;;;;;29.83;22.45;;;;;;;18.48;80.08;100520.19;5110787;28;20019;-58
2022/08/16 05:06:14;;;;;;;24.25;21.65;;;;;;;18.53;79.95;100518.72;5111457;28;20035;-58
2022/08/16 05:08:40;;;;;;;26.25;22.38;;;;;;;18.61;79.68;100517.94;5094105;28;20412;-58
2022/08/16 05:11:08;;;;;;;25.20;20.35;;;;;;;18.64;79.49;100514.06;5094193;28;20406;-59
2022/08/16 05:13:36;;;;;;;24.40;20.93;;;;;;;18.66;79.37;100521.00;5103611;28;20479;-58
2022/08/16 05:16:02;;;;;;;25.13;20.70;;;;;;;18.65;79.09;100513.06;5091883;28;20028;-59
2022/08/16 05:18:27;;;;;;;22.88;20.58;;;;;;;18.71;78.96;100517.84;5091918;28;20050;-58
2022/08/16 05:20:53;;;;;;;23.05;20.33;;;;;;;18.76;78.82;100524.47;5095880;28;20027;-58
2022/08/16 05:23:18;;;;;;;22.95;19.90;;;;;;;18.83;78.86;100530.94;5108990;28;20023;-58
2022/08/16 05:25:44;;;;;;;25.05;21.02;;;;;;;18.88;78.43;100521.50;5101087;28;20372;-58
2022/08/16 05:28:10;;;;;;;22.77;20.20;;;;;;;18.90;78.46;100541.06;5072410;28;20063;-58
2022/08/16 05:30:38;;;;;;;23.45;19.63;;;;;;;18.97;77.88;100529.50;5100257;28;20038;-58
2022/08/16 05:33:04;;;;;;;23.80;18.95;;;;;;;19.14;77.38;100535.81;5103855;28;20437;-58
2022/08/16 05:35:30;;;;;;;22.38;19.60;;;;;;;19.09;77.65;100540.00;5073960;28;20039;-58
2022/08/16 05:37:55;;;;;;;26.80;21.05;;;;;;;19.10;77.20;100542.53;5088476;28;20032;-58
2022/08/16 05:40:22;;;;;;;21.95;19.73;;;;;;;19.22;76.75;100548.50;5069012;28;20039;-58
2022/08/16 05:42:47;;;;;;;21.55;19.33;;;;;;;19.31;76.37;100539.47;5088522;28;20042;-58
2022/08/16 05:45:14;;;;;;;21.58;19.13;;;;;;;19.33;76.67;100542.00;5104995;28;20023;-58
2022/08/16 05:47:41;;;;;;;22.83;20.15;;;;;;;19.34;76.42;100549.06;5091677;28;20050;-58
2022/08/16 05:50:09;;;;;;;24.08;19.77;;;;;;;19.37;76.31;100559.53;5092300;28;20051;-58
2022/08/16 05:52:37;;;;;;;22.00;19.80;;;;;;;19.51;75.91;100558.94;5092096;28;20032;-59
2022/08/16 05:55:04;;;;;;;23.83;20.25;;;;;;;19.51;75.36;100556.25;5091626;28;20051;-58
2022/08/16 05:57:29;;;;;;;24.05;19.65;;;;;;;19.64;74.88;100553.91;5090001;28;20016;-58
2022/08/16 05:59:55;;;;;;;25.20;20.42;;;;;;;19.62;74.46;100555.97;5090401;28;20387;-58
2022/08/16 06:02:26;;;;;;;23.60;19.33;;;;;;;19.69;74.13;100565.09;5093635;28;20051;-58
2022/08/16 06:04:52;;;;;;;21.98;19.88;;;;;;;19.73;74.24;100571.03;5097727;28;20047;-58
2022/08/16 06:07:18;;;;;;;25.30;18.30;;;;;;;19.80;73.92;100576.63;5091489;28;20049;-58
2022/08/16 06:09:43;;;;;;;23.17;18.75;;;;;;;19.68;73.97;100549.09;5090829;28;20451;-58
2022/08/16 06:12:12;;;;;;;22.55;18.15;;;;;;;19.88;73.36;100568.53;5100877;28;20036;-58
2022/08/16 06:14:38;;;;;;;21.17;18.35;;;;;;;19.96;72.99;100574.81;5103052;28;20112;-58
2022/08/16 06:17:03;;;;;;;19.25;17.30;;;;;;;20.03;73.14;100575.00;5091141;28;20103;-58
2022/08/16 06:19:29;;;;;;;20.33;18.20;;;;;;;20.08;72.78;100580.75;5089850;28;20028;-58
2022/08/16 06:21:54;;;;;;;22.67;17.77;;;;;;;20.14;72.48;100580.06;5085205;28;20024;-58
2022/08/16 06:24:20;;;;;;;20.05;17.95;;;;;;;20.15;71.37;100578.25;5090332;28;20032;-58
2022/08/16 06:26:46;;;;;;;19.45;17.55;;;;;;;20.23;71.39;100586.34;5094664;28;20039;-58
2022/08/16 06:29:11;;;;;;;19.85;17.50;;;;;;;20.26;71.23;100577.06;5090658;28;20394;-60
2022/08/16 06:31:37;;;;;;;20.13;18.05;;;;;;;20.32;70.67;100589.91;5090414;28;20397;-61
2022/08/16 06:34:02;;;;;;;22.55;18.95;;;;;;;20.37;70.92;100587.56;5093807;28;20027;-60
2022/08/16 06:36:28;;;;;;;20.90;17.88;;;;;;;20.48;70.13;100589.94;5087232;28;20039;-60
2022/08/16 06:38:53;;;;;;;20.33;18.30;;;;;;;20.53;69.88;100579.50;5098680;28;20490;-61
2022/08/16 06:41:21;;;;;;;20.08;18.08;;;;;;;20.66;69.10;100587.09;5113914;28;20028;-60
2022/08/16 06:43:47;;;;;;;19.10;17.08;;;;;;;20.78;68.94;100583.03;5096877;28;20015;-61
2022/08/16 06:46:28;;;;;;;21.73;18.27;;;;;;;20.84;68.91;100584.22;5096952;28;20043;-61
2022/08/16 06:48:55;;;;;;;20.40;17.95;;;;;;;20.91;67.89;100587.91;5092260;28;20052;-61
2022/08/16 06:51:21;;;;;;;19.92;17.83;;;;;;;21.02;68.42;100594.84;5108658;28;20115;-61
2022/08/16 06:53:46;;;;;;;20.60;18.35;;;;;;;21.08;67.94;100586.06;5113805;28;20118;-61
2022/08/16 06:56:12;;;;;;;18.90;16.90;;;;;;;21.22;67.59;100592.63;5114878;28;20482;-61
2022/08/16 06:58:38;;;;;;;20.20;17.10;;;;;;;21.24;67.37;100590.59;5113273;28;20421;-61
2022/08/16 07:01:06;;;;;;;20.42;18.20;;;;;;;21.25;67.25;100586.88;5114833;28;20492;-61
2022/08/16 07:03:32;;;;;;;18.90;17.00;;;;;;;21.37;66.64;100585.50;5114875;28;20514;-61
2022/08/16 07:05:58;;;;;;;18.98;16.95;;;;;;;21.45;66.63;100592.78;5114944;28;20020;-61
2022/08/16 07:08:24;;;;;;;19.85;17.08;;;;;;;21.48;66.39;100598.66;5114822;28;20043;-61
2022/08/16 07:10:50;;;;;;;20.52;17.42;;;;;;;21.58;66.60;100594.91;5114308;28;20020;-61
2022/08/16 07:13:17;;;;;;;18.88;15.68;;;;;;;21.79;65.91;100603.28;5102227;28;20032;-61
2022/08/16 07:15:45;;;;;;;21.00;17.25;;;;;;;21.83;64.84;100604.63;5094663;28;20146;-61
2022/08/16 07:18:14;;;;;;;23.42;16.42;;;;;;;21.91;65.08;100606.44;5094446;28;20107;-61
2022/08/16 07:20:40;;;;;;;17.75;15.57;;;;;;;22.00;65.37;100606.25;5093027;28;20470;-61
2022/08/16 07:23:06;;;;;;;20.00;16.90;;;;;;;22.08;64.27;100610.75;5094110;28;20050;-61
2022/08/16 07:25:33;;;;;;;17.90;15.88;;;;;;;22.09;64.48;100590.78;5092648;28;20028;-61
2022/08/16 07:27:59;;;;;;;17.88;15.50;;;;;;;22.38;63.88;100613.66;5093442;28;20030;-61
2022/08/16 07:30:26;;;;;;;18.70;15.43;;;;;;;22.45;62.68;100614.66;5094217;28;20107;-61
2022/08/16 07:32:51;;;;;;;19.15;15.82;;;;;;;22.57;63.00;100615.91;5093869;28;20386;-61
2022/08/16 07:35:17;;;;;;;21.38;14.95;;;;;;;22.66;63.10;100605.84;5075761;28;20169;-61
2022/08/16 07:37:43;;;;;;;18.10;16.10;;;;;;;22.72;61.52;100615.97;5093710;28;20040;-61
2022/08/16 07:40:10;;;;;;;17.27;15.48;;;;;;;22.65;61.92;100626.69;5092552;28;20028;-61
2022/08/16 07:42:36;;;;;;;18.48;16.20;;;;;;;22.64;61.58;100618.72;5093365;28;20031;-61
2022/08/16 07:45:04;;;;;;;19.38;16.38;;;;;;;22.84;61.71;100632.63;5093364;28;20425;-61
2022/08/16 07:47:30;;;;;;;24.23;14.95;;;;;;;22.83;61.42;100623.66;5093633;28;20032;-61
2022/08/16 07:49:55;;;;;;;22.65;15.40;;;;;;;22.88;61.02;100636.66;5092148;28;20464;-61
2022/08/16 07:52:21;;;;;;;16.48;14.82;;;;;;;22.87;60.62;100624.13;5092081;28;20053;-61
2022/08/16 07:54:47;;;;;;;19.48;14.38;;;;;;;23.05;60.94;100627.38;5093480;28;20040;-61
2022/08/16 07:57:13;;;;;;;17.27;15.50;;;;;;;23.17;59.66;100633.22;5092072;28;20440;-61
2022/08/16 07:59:39;;;;;;;16.85;14.85;;;;;;;23.17;59.51;100635.09;5091678;28;20035;-61
2022/08/16 08:02:05;;;;;;;20.63;15.73;;;;;;;23.25;59.54;100632.31;5092092;28;20024;-61
2022/08/16 08:04:33;;;;;;;18.55;14.63;;;;;;;23.41;58.73;100631.28;5093371;28;20023;-61
2022/08/16 08:06:59;;;;;;;18.90;15.27;;;;;;;23.41;58.70;100645.69;5093191;28;20027;-61
2022/08/16 08:09:25;;;;;;;18.65;13.98;;;;;;;23.56;58.51;100635.72;5093256;28;20028;-61
2022/08/16 08:11:50;;;;;;;21.80;13.40;;;;;;;23.64;58.28;100637.47;5091682;28;20032;-61
2022/08/16 08:14:16;;;;;;;15.15;12.32;;;;;;;23.82;57.75;100647.97;5092545;28;20098;-61
2022/08/16 08:16:41;;;;;;;19.25;12.10;;;;;;;23.98;57.24;100655.09;5109003;28;20034;-61
2022/08/16 08:19:09;;;;;;;18.00;14.98;;;;;;;23.97;56.12;100654.28;5091495;28;20036;-61
2022/08/16 08:21:39;;;;;;;22.25;14.48;;;;;;;24.13;55.82;100649.66;5092843;28;20386;-61
2022/08/16 08:24:06;;;;;;;15.63;13.38;;;;;;;24.13;55.69;100653.19;5092931;28;20085;-61
2022/08/16 08:26:33;;;;;;;22.35;13.70;;;;;;;24.30;55.34;100647.56;5091784;28;20111;-61
2022/08/16 08:28:59;;;;;;;15.40;12.57;;;;;;;24.37;54.93;100651.19;5092320;28;20032;-61
2022/08/16 08:31:27;;;;;;;16.08;13.80;;;;;;;24.39;54.94;100647.25;5092969;28;20035;-61
2022/08/16 08:33:55;;;;;;;19.65;11.43;;;;;;;24.57;54.34;100657.72;5091408;28;20034;-61
2022/08/16 08:36:28;;;;;;;18.60;12.73;;;;;;;24.62;54.44;100657.97;5091539;28;20059;-61
2022/08/16 08:38:54;;;;;;;13.50;10.88;;;;;;;24.74;54.30;100652.00;5092453;28;20020;-61
2022/08/16 08:41:20;;;;;;;13.68;10.73;;;;;;;25.00;53.84;100656.84;5091615;28;20077;-61
2022/08/16 08:43:48;;;;;;;14.23;10.15;;;;;;;25.02;53.21;100658.34;5091063;28;20035;-61
2022/08/16 08:46:14;;;;;;;12.35;9.98;;;;;;;25.16;51.72;100653.88;5092756;28;20390;-61
2022/08/16 08:48:39;;;;;;;14.45;10.00;;;;;;;25.21;52.63;100665.03;5090354;28;20034;-61
2022/08/16 08:51:07;;;;;;;15.15;9.60;;;;;;;25.36;50.98;100651.31;5092034;28;20036;-61
2022/08/16 08:53:35;;;;;;;12.13;9.20;;;;;;;25.37;50.13;100650.28;5090983;28;20023;-61
2022/08/16 08:56:03;;;;;;;18.60;9.73;;;;;;;25.42;49.45;100660.59;5092544;28;20099;-61
2022/08/16 08:58:32;;;;;;;20.00;9.15;;;;;;;25.70;49.64;100666.81;5091943;28;20461;-61
2022/08/16 09:00:58;;;;;;;15.18;9.82;;;;;;;25.74;48.84;100667.28;5091138;28;20510;-61
2022/08/16 09:03:24;;;;;;;10.07;8.50;;;;;;;25.79;49.22;100679.25;5092133;28;20098;-61
2022/08/16 09:05:50;;;;;;;11.63;9.38;;;;;;;25.92;48.25;100667.63;5092070;28;20020;-61
2022/08/16 09:08:16;;;;;;;12.70;8.57;;;;;;;26.09;47.69;100670.00;5092051;28;20479;-61
2022/08/16 09:10:44;;;;;;;13.98;8.05;;;;;;;26.09;47.67;100667.25;5091268;28;20110;-61
2022/08/16 09:13:09;;;;;;;17.58;8.45;;;;;;;26.07;46.71;100677.56;5091490;28;20467;-61
2022/08/16 09:15:35;;;;;;;11.18;8.15;;;;;;;26.12;47.40;100669.59;5092154;28;20156;-61
2022/08/16 09:18:02;;;;;;;9.02;8.10;;;;;;;26.16;46.72;100673.59;5073449;28;20410;-61
2022/08/16 09:20:29;;;;;;;10.00;7.63;;;;;;;26.11;46.38;100676.91;5090626;28;20039;-61
2022/08/16 09:22:55;;;;;;;8.40;7.28;;;;;;;26.31;46.20;100682.47;5090692;28;20485;-62
2022/08/16 09:25:22;;;;;;;9.95;7.75;;;;;;;26.18;46.50;100656.00;5092103;28;20028;-61
2022/08/16 09:27:48;;;;;;;9.35;8.40;;;;;;;26.25;45.78;100675.94;5091562;28;20023;-61
2022/08/16 09:30:14;;;;;;;10.55;8.50;;;;;;;26.27;45.41;100683.94;5107861;28;20501;-61
2022/08/16 09:32:39;;;;;;;17.05;8.02;;;;;;;26.50;45.41;100675.41;5091590;28;20027;-61
2022/08/16 09:35:06;;;;;;;12.35;6.80;;;;;;;26.84;44.99;100668.97;5091661;28;20050;-61
2022/08/16 09:37:32;;;;;;;11.07;6.70;;;;;;;27.05;43.28;100680.75;5091751;28;20034;-61
2022/08/16 09:39:59;;;;;;;8.07;5.90;;;;;;;27.30;43.59;100691.94;5090415;28;20031;-61
2022/08/16 09:42:27;;;;;;;7.28;5.50;;;;;;;27.43;42.68;100680.16;5091783;28;20050;-61
2022/08/16 09:44:55;;;;;;;12.57;6.63;;;;;;;27.49;41.63;100676.56;5091331;28;20028;-61
2022/08/16 09:47:21;;;;;;;12.23;6.93;;;;;;;27.67;41.52;100671.28;5091925;28;20066;-61
2022/08/16 09:49:46;;;;;;;8.00;5.65;;;;;;;27.75;41.05;100675.69;5089919;28;20064;-61
2022/08/16 09:52:12;;;;;;;5.90;4.95;;;;;;;27.99;39.73;100680.47;5091583;28;20064;-61
2022/08/16 09:54:39;;;;;;;10.15;4.72;;;;;;;28.11;39.26;100675.19;5091476;28;20067;-61
2022/08/16 09:57:06;;;;;;;9.52;4.78;;;;;;;28.22;37.61;100679.13;5090338;28;20160;-61
2022/08/16 09:59:32;;;;;;;7.75;4.70;;;;;;;28.36;39.10;100682.66;5090846;28;20422;-61
2022/08/16 10:01:59;;;;;;;7.40;4.93;;;;;;;28.24;38.42;100682.50;5096005;28;20383;-61
2022/08/16 10:04:25;;;;;;;8.93;5.30;;;;;;;28.28;37.91;100678.25;5094142;28;20394;-61
2022/08/16 10:06:53;;;;;;;7.07;4.70;;;;;;;28.26;38.32;100681.19;5095778;28;20103;-61
2022/08/16 10:09:18;;;;;;;12.63;5.05;;;;;;;28.19;38.97;100677.66;5095689;28;20043;-61
2022/08/16 10:14:29;;;;;;;6.82;5.10;;;;;;;28.22;39.33;100679.13;5123252;27;20411;-61
2022/08/16 10:17:03;;;;;;;6.82;4.70;;;;;;;28.38;38.80;100678.63;5095586;28;20463;-61
2022/08/16 10:19:29;;;;;;;9.95;5.07;;;;;;;28.38;38.32;100681.34;5095219;28;20110;-61
2022/08/16 10:21:56;;;;;;;6.55;3.90;;;;;;;28.57;37.72;100676.06;5095478;28;20020;-61
2022/08/16 10:24:22;;;;;;;4.25;3.85;;;;;;;29.01;38.30;100685.22;5094040;28;20027;-61
2022/08/16 10:26:47;;;;;;;6.47;4.10;;;;;;;29.10;36.17;100672.97;5095355;28;20031;-61
2022/08/16 10:29:14;;;;;;;6.85;4.28;;;;;;;29.05;35.88;100689.22;5093582;28;20024;-61
2022/08/16 10:31:42;;;;;;;11.63;4.47;;;;;;;28.89;35.76;100680.47;5094874;28;20028;-61
2022/08/16 10:34:08;;;;;;;6.95;4.72;;;;;;;28.98;35.96;100683.78;5094967;28;20031;-61
2022/08/16 10:36:36;;;;;;;4.25;3.85;;;;;;;28.94;37.21;100679.78;5095158;28;20028;-61
2022/08/16 10:39:03;;;;;;;6.40;3.95;;;;;;;29.23;35.95;100686.53;5094919;28;20035;-61
2022/08/16 10:41:29;;;;;;;7.45;3.75;;;;;;;29.48;35.35;100689.28;5094948;28;20036;-61
2022/08/16 10:43:55;;;;;;;9.40;4.13;;;;;;;29.53;35.15;100683.97;5094237;28;20031;-61
2022/08/16 10:46:23;;;;;;;5.07;3.50;;;;;;;29.80;33.69;100689.19;5094587;28;20122;-61
2022/08/16 10:48:48;;;;;;;6.68;3.45;;;;;;;29.94;33.81;100692.63;5093532;28;20071;-61
2022/08/16 10:51:14;;;;;;;8.70;3.80;;;;;;;30.23;33.70;100689.13;5110664;28;20032;-61
2022/08/16 10:53:40;;;;;;;6.63;3.90;;;;;;;30.39;33.21;100679.44;5127375;27;20105;-61
2022/08/16 10:56:09;;;;;;;6.05;3.85;;;;;;;30.65;33.96;100682.84;5094773;28;20062;-61
2022/08/16 10:58:37;;;;;;;7.43;3.92;;;;;;;30.75;33.34;100677.66;5094440;28;20113;-61
2022/08/16 11:01:04;;;;;;;;;;;;;;;31.03;34.13;100690.75;5093608;28;20028;-61
2022/08/16 11:03:30;;;;;;;5.53;4.20;;;;;;;30.94;33.83;100683.94;5094506;28;19908;-61
2022/08/16 11:05:58;;;;;;;5.97;4.00;;;;;;;31.06;33.43;100686.69;5127368;27;20042;-61
2022/08/16 11:08:23;;;;;;;;;;;;;;;31.45;33.14;100694.31;5095422;28;20095;-61
2022/08/16 11:10:51;;;;;;;6.43;4.10;;;;;;;31.17;31.83;100692.22;5126696;27;20096;-61
2022/08/16 11:13:22;;;;;;;6.97;4.07;;;;;;;31.16;31.82;100695.22;5092641;28;20038;-61
2022/08/16 11:15:48;;;;;;;7.68;3.95;;;;;;;31.10;31.17;100690.66;5094363;28;20112;-61